createdAt,value
2023-01-05T00:00:32.655Z,7.50
2023-01-05T00:01:35.425Z,7.50
2023-01-05T00:02:37.723Z,7.50
2023-01-05T00:03:40.303Z,7.50
2023-01-05T00:04:42.402Z,7.50
2023-01-05T00:05:44.518Z,7.50
2023-01-05T00:06:46.817Z,7.50
2023-01-05T00:07:48.834Z,7.50
2023-01-05T00:08:50.903Z,7.50
2023-01-05T00:09:52.965Z,7.40
2023-01-05T00:11:13.447Z,7.40
2023-01-05T00:12:34.124Z,7.40
2023-01-05T00:13:54.864Z,7.40
2023-01-05T00:15:22.643Z,7.40
2023-01-05T00:16:43.201Z,7.30
2023-01-05T00:18:04.149Z,7.30
2023-01-05T00:19:24.940Z,7.30
2023-01-05T00:20:45.542Z,7.30
2023-01-05T00:22:06.233Z,7.20
2023-01-05T00:23:08.926Z,7.10
2023-01-05T00:24:13.617Z,7.10
2023-01-05T00:25:21.624Z,7.10
2023-01-05T00:26:24.021Z,7.10
2023-01-05T00:27:27.079Z,7.10
2023-01-05T00:28:29.039Z,7.00
2023-01-05T00:29:31.132Z,7.10
2023-01-05T00:30:38.123Z,7.00
2023-01-05T00:31:40.266Z,7.00
2023-01-05T00:32:43.330Z,7.00
2023-01-05T00:33:45.352Z,7.00
2023-01-05T00:34:48.308Z,7.00
2023-01-05T00:35:50.543Z,6.90
2023-01-05T00:36:52.554Z,6.90
2023-01-05T00:37:55.027Z,6.90
2023-01-05T00:38:56.984Z,6.90
2023-01-05T00:39:59.289Z,6.80
2023-01-05T00:41:01.918Z,6.80
2023-01-05T00:42:03.977Z,6.80
2023-01-05T00:43:06.379Z,6.80
2023-01-05T00:44:08.482Z,6.90
2023-01-05T00:45:13.125Z,6.90
2023-01-05T00:46:15.233Z,6.90
2023-01-05T00:47:17.284Z,6.90
2023-01-05T00:48:19.324Z,6.90
2023-01-05T00:49:21.306Z,6.80
2023-01-05T00:50:23.921Z,6.80
2023-01-05T00:51:25.915Z,6.80
2023-01-05T00:52:27.924Z,6.80
2023-01-05T00:53:30.659Z,6.80
2023-01-05T00:54:33.257Z,6.80
2023-01-05T00:55:35.642Z,6.80
2023-01-05T00:56:37.914Z,6.80
2023-01-05T00:57:40.090Z,6.80
2023-01-05T00:58:43.822Z,6.80
2023-01-05T00:59:45.958Z,6.80
2023-01-05T01:00:52.027Z,6.90
2023-01-05T01:01:55.454Z,6.80
2023-01-05T01:02:57.608Z,6.90
2023-01-05T01:03:59.710Z,6.90
2023-01-05T01:05:02.133Z,6.80
2023-01-05T01:06:06.154Z,6.80
2023-01-05T01:07:08.202Z,6.80
2023-01-05T01:08:10.617Z,6.80
2023-01-05T01:09:13.902Z,6.80
2023-01-05T01:10:15.923Z,6.80
2023-01-05T01:11:17.911Z,6.80
2023-01-05T01:12:20.654Z,6.70
2023-01-05T01:13:24.454Z,6.70
2023-01-05T01:14:27.041Z,6.80
2023-01-05T01:15:29.039Z,6.80
2023-01-05T01:16:31.119Z,6.80
2023-01-05T01:17:33.357Z,6.80
2023-01-05T01:18:35.845Z,6.80
2023-01-05T01:19:39.279Z,6.80
2023-01-05T01:20:41.301Z,6.70
2023-01-05T01:21:43.531Z,6.70
2023-01-05T01:22:45.490Z,6.70
2023-01-05T01:25:53.684Z,6.70
2023-01-05T01:27:23.333Z,6.70
2023-01-05T01:28:25.372Z,6.70
2023-01-05T01:29:27.497Z,6.70
2023-01-05T01:30:30.617Z,6.70
2023-01-05T01:31:32.684Z,6.70
2023-01-05T01:32:34.761Z,6.70
2023-01-05T01:33:39.676Z,6.70
2023-01-05T01:35:43.725Z,6.70
2023-01-05T01:36:46.106Z,6.70
2023-01-05T01:37:48.858Z,6.70
2023-01-05T01:38:50.866Z,6.60
2023-01-05T01:39:53.375Z,6.60
2023-01-05T01:40:55.419Z,6.60
2023-01-05T01:41:58.929Z,6.60
2023-01-05T01:43:00.954Z,6.60
2023-01-05T01:44:03.173Z,6.60
2023-01-05T01:45:25.581Z,6.50
2023-01-05T01:46:28.638Z,6.50
2023-01-05T01:47:36.763Z,6.40
2023-01-05T01:48:42.743Z,6.40
2023-01-05T01:49:44.993Z,6.40
2023-01-05T01:50:52.667Z,6.50
2023-01-05T01:51:57.448Z,6.40
2023-01-05T01:53:04.558Z,6.50
2023-01-05T01:54:09.695Z,6.40
2023-01-05T01:55:12.094Z,6.40
2023-01-05T01:56:18.295Z,6.40
2023-01-05T01:57:22.072Z,6.40
2023-01-05T01:58:29.033Z,6.40
2023-01-05T01:59:31.303Z,6.40
2023-01-05T02:00:33.981Z,6.40
2023-01-05T02:01:36.146Z,6.30
2023-01-05T02:02:38.361Z,6.30
2023-01-05T02:03:40.999Z,6.20
2023-01-05T02:04:44.866Z,6.30
2023-01-05T02:05:47.019Z,6.30
2023-01-05T02:06:50.291Z,6.20
2023-01-05T02:07:52.280Z,6.20
2023-01-05T02:08:54.892Z,6.30
2023-01-05T02:09:57.067Z,6.30
2023-01-05T02:11:08.064Z,6.30
2023-01-05T02:12:33.503Z,6.30
2023-01-05T02:13:38.337Z,6.30
2023-01-05T02:14:52.079Z,6.30
2023-01-05T02:16:26.869Z,6.30
2023-01-05T02:17:59.325Z,6.20
2023-01-05T02:19:10.237Z,6.30
2023-01-05T02:20:27.043Z,6.30
2023-01-05T02:21:42.103Z,6.30
2023-01-05T02:23:16.933Z,6.20
2023-01-05T02:24:52.200Z,6.20
2023-01-05T02:26:15.911Z,6.20
2023-01-05T02:27:45.617Z,6.20
2023-01-05T02:29:36.770Z,6.10
2023-01-05T02:30:44.442Z,6.10
2023-01-05T02:31:57.553Z,6.00
2023-01-05T02:33:15.434Z,6.00
2023-01-05T02:34:20.329Z,6.00
2023-01-05T02:35:47.847Z,6.00
2023-01-05T02:37:00.532Z,6.00
2023-01-05T02:38:19.849Z,6.00
2023-01-05T02:39:45.754Z,6.00
2023-01-05T02:40:51.907Z,6.00
2023-01-05T02:42:11.598Z,6.00
2023-01-05T02:43:20.720Z,6.00
2023-01-05T02:44:23.395Z,6.00
2023-01-05T02:45:28.637Z,6.00
2023-01-05T02:46:35.165Z,6.00
2023-01-05T02:47:42.379Z,6.00
2023-01-05T02:48:49.255Z,6.00
2023-01-05T02:49:57.247Z,6.00
2023-01-05T02:51:08.305Z,6.00
2023-01-05T02:52:13.169Z,6.00
2023-01-05T02:53:36.394Z,5.90
2023-01-05T02:54:45.313Z,5.90
2023-01-05T02:56:02.364Z,6.00
2023-01-05T02:57:15.950Z,5.90
2023-01-05T02:58:24.690Z,5.90
2023-01-05T02:59:36.837Z,5.90
2023-01-05T03:00:50.698Z,5.90
2023-01-05T03:02:03.876Z,5.90
2023-01-05T03:03:18.352Z,6.00
2023-01-05T03:04:44.138Z,6.00
2023-01-05T03:05:58.905Z,6.00
2023-01-05T03:07:08.910Z,6.00
2023-01-05T03:08:25.115Z,6.00
2023-01-05T03:09:38.373Z,6.10
2023-01-05T03:11:11.924Z,6.10
2023-01-05T03:12:46.524Z,6.20
2023-01-05T03:14:13.229Z,6.20
2023-01-05T03:15:23.944Z,6.20
2023-01-05T03:16:31.261Z,6.30
2023-01-05T03:17:44.747Z,6.30
2023-01-05T03:19:10.018Z,6.30
2023-01-05T03:20:16.091Z,6.30
2023-01-05T03:21:18.319Z,6.20
2023-01-05T03:22:48.845Z,6.20
2023-01-05T03:24:09.551Z,6.30
2023-01-05T03:25:35.478Z,6.30
2023-01-05T03:26:58.798Z,6.20
2023-01-05T03:28:21.165Z,6.30
2023-01-05T03:29:42.476Z,6.30
2023-01-05T03:31:28.061Z,6.20
2023-01-05T03:32:52.029Z,6.10
2023-01-05T03:34:21.364Z,6.00
2023-01-05T03:35:35.464Z,5.90
2023-01-05T03:36:50.821Z,5.80
2023-01-05T03:38:11.357Z,5.80
2023-01-05T03:39:20.586Z,5.70
2023-01-05T03:40:31.010Z,5.60
2023-01-05T03:41:33.865Z,5.60
2023-01-05T03:42:38.257Z,5.50
2023-01-05T03:43:42.061Z,5.40
2023-01-05T03:44:45.881Z,5.30
2023-01-05T03:45:58.399Z,5.30
2023-01-05T03:47:03.229Z,5.30
2023-01-05T03:48:05.882Z,5.30
2023-01-05T03:49:11.169Z,5.30
2023-01-05T03:50:14.396Z,5.30
2023-01-05T03:51:17.041Z,5.30
2023-01-05T03:52:19.092Z,5.30
2023-01-05T03:53:21.353Z,5.30
2023-01-05T03:54:24.421Z,5.30
2023-01-05T03:55:26.692Z,5.30
2023-01-05T03:56:28.715Z,5.30
2023-01-05T03:57:32.802Z,5.30
2023-01-05T03:58:35.142Z,5.30
2023-01-05T03:59:37.211Z,5.30
2023-01-05T04:00:39.766Z,5.30
2023-01-05T04:01:44.833Z,5.20
2023-01-05T04:02:49.491Z,5.20
2023-01-05T04:03:55.926Z,5.20
2023-01-05T04:04:58.498Z,5.20
2023-01-05T04:06:01.272Z,5.20
2023-01-05T04:07:04.846Z,5.30
2023-01-05T04:08:08.968Z,5.30
2023-01-05T04:09:11.849Z,5.30
2023-01-05T04:10:16.304Z,5.30
2023-01-05T04:11:21.275Z,5.30
2023-01-05T04:12:36.711Z,5.20
2023-01-05T04:13:39.177Z,5.30
2023-01-05T04:14:41.535Z,5.30
2023-01-05T04:15:43.635Z,5.30
2023-01-05T04:16:46.492Z,5.30
2023-01-05T04:17:53.797Z,5.30
2023-01-05T04:18:58.955Z,5.20
2023-01-05T04:20:01.591Z,5.20
2023-01-05T04:21:04.426Z,5.20
2023-01-05T04:22:06.815Z,5.20
2023-01-05T04:23:08.899Z,5.20
2023-01-05T04:24:12.368Z,5.20
2023-01-05T04:25:17.038Z,5.20
2023-01-05T04:26:19.579Z,5.20
2023-01-05T04:27:25.118Z,5.20
2023-01-05T04:28:27.719Z,5.20
2023-01-05T04:29:31.941Z,5.30
2023-01-05T04:30:35.805Z,5.30
2023-01-05T04:31:39.098Z,5.30
2023-01-05T04:32:42.347Z,5.30
2023-01-05T04:33:48.482Z,5.30
2023-01-05T04:34:53.878Z,5.30
2023-01-05T04:35:56.581Z,5.30
2023-01-05T04:37:02.039Z,5.30
2023-01-05T04:38:05.970Z,5.30
2023-01-05T04:39:08.493Z,5.30
2023-01-05T04:40:16.376Z,5.30
2023-01-05T04:41:24.139Z,5.30
2023-01-05T04:42:28.229Z,5.30
2023-01-05T04:43:30.848Z,5.30
2023-01-05T04:44:36.607Z,5.20
2023-01-05T04:45:41.359Z,5.20
2023-01-05T04:46:43.434Z,5.20
2023-01-05T04:47:46.790Z,5.20
2023-01-05T04:48:52.720Z,5.20
2023-01-05T04:49:56.367Z,5.20
2023-01-05T04:50:58.699Z,5.30
2023-01-05T04:52:07.850Z,5.30
2023-01-05T04:53:10.785Z,5.30
2023-01-05T04:54:16.059Z,5.30
2023-01-05T04:55:18.361Z,5.20
2023-01-05T04:56:21.259Z,5.20
2023-01-05T04:57:24.501Z,5.20
2023-01-05T04:58:29.745Z,5.30
2023-01-05T04:59:33.572Z,5.30
2023-01-05T05:00:38.460Z,5.30
2023-01-05T05:01:42.186Z,5.30
2023-01-05T05:02:47.544Z,5.30
2023-01-05T05:03:50.774Z,5.30
2023-01-05T05:04:55.016Z,5.30
2023-01-05T05:05:58.552Z,5.30
2023-01-05T05:07:03.038Z,5.30
2023-01-05T05:08:07.668Z,5.30
2023-01-05T05:09:11.311Z,5.30
2023-01-05T05:10:18.018Z,5.40
2023-01-05T05:11:21.997Z,5.40
2023-01-05T05:12:24.886Z,5.40
2023-01-05T05:13:27.853Z,5.40
2023-01-05T05:14:30.088Z,5.40
2023-01-05T05:15:34.614Z,5.40
2023-01-05T05:16:38.237Z,5.40
2023-01-05T05:17:41.748Z,5.30
2023-01-05T05:18:47.449Z,5.30
2023-01-05T05:19:53.942Z,5.30
2023-01-05T05:20:57.273Z,5.30
2023-01-05T05:22:04.244Z,5.30
2023-01-05T05:23:07.268Z,5.30
2023-01-05T05:24:09.626Z,5.30
2023-01-05T05:25:15.336Z,5.30
2023-01-05T05:26:20.729Z,5.30
2023-01-05T05:27:23.879Z,5.30
2023-01-05T05:28:28.534Z,5.30
2023-01-05T05:29:30.615Z,5.20
2023-01-05T05:30:32.798Z,5.20
2023-01-05T05:31:34.874Z,5.30
2023-01-05T05:32:42.393Z,5.20
2023-01-05T05:33:46.280Z,5.30
2023-01-05T05:34:48.300Z,5.30
2023-01-05T05:35:50.627Z,5.30
2023-01-05T05:36:52.582Z,5.30
2023-01-05T05:37:56.686Z,5.30
2023-01-05T05:38:59.115Z,5.30
2023-01-05T05:40:01.124Z,5.30
2023-01-05T05:41:03.195Z,5.20
2023-01-05T05:42:05.434Z,5.20
2023-01-05T05:43:07.425Z,5.10
2023-01-05T05:44:10.090Z,5.10
2023-01-05T05:45:13.157Z,5.00
2023-01-05T05:46:15.204Z,5.00
2023-01-05T05:47:17.285Z,5.00
2023-01-05T05:48:19.873Z,4.90
2023-01-05T05:49:21.914Z,5.00
2023-01-05T05:50:23.943Z,4.90
2023-01-05T05:51:27.212Z,4.90
2023-01-05T05:52:29.254Z,4.90
2023-01-05T05:53:32.293Z,4.90
2023-01-05T05:54:34.311Z,4.80
2023-01-05T05:55:36.415Z,4.80
2023-01-05T05:56:38.387Z,4.80
2023-01-05T05:57:41.126Z,4.80
2023-01-05T05:58:43.551Z,4.70
2023-01-05T05:59:45.533Z,4.70
2023-01-05T06:00:47.976Z,4.70
2023-01-05T06:01:50.156Z,4.70
2023-01-05T06:02:53.024Z,4.70
2023-01-05T06:03:55.140Z,4.70
2023-01-05T06:04:57.193Z,4.70
2023-01-05T06:05:59.276Z,4.60
2023-01-05T06:07:01.390Z,4.70
2023-01-05T06:08:03.538Z,4.70
2023-01-05T06:09:06.049Z,4.70
2023-01-05T06:10:08.780Z,4.70
2023-01-05T06:11:14.054Z,4.70
2023-01-05T06:12:16.373Z,4.60
2023-01-05T06:13:18.826Z,4.60
2023-01-05T06:14:20.837Z,4.60
2023-01-05T06:15:23.961Z,4.60
2023-01-05T06:16:26.521Z,4.60
2023-01-05T06:17:29.255Z,4.60
2023-01-05T06:18:31.390Z,4.70
2023-01-05T06:19:33.440Z,4.70
2023-01-05T06:20:36.196Z,4.70
2023-01-05T06:21:38.393Z,4.60
2023-01-05T06:22:42.096Z,4.60
2023-01-05T06:23:44.166Z,4.50
2023-01-05T06:24:46.264Z,4.50
2023-01-05T06:25:48.282Z,4.60
2023-01-05T06:26:50.311Z,4.50
2023-01-05T06:27:52.318Z,4.50
2023-01-05T06:28:54.334Z,4.50
2023-01-05T06:29:56.445Z,4.60
2023-01-05T06:30:59.167Z,4.60
2023-01-05T06:32:01.220Z,4.60
2023-01-05T06:33:03.318Z,4.60
2023-01-05T06:34:05.290Z,4.70
2023-01-05T06:35:07.561Z,4.60
2023-01-05T06:36:09.739Z,4.60
2023-01-05T06:37:12.821Z,4.60
2023-01-05T06:38:16.172Z,4.60
2023-01-05T06:39:18.167Z,4.60
2023-01-05T06:40:21.321Z,4.60
2023-01-05T06:41:23.339Z,4.70
2023-01-05T06:42:25.601Z,4.70
2023-01-05T06:43:27.704Z,4.70
2023-01-05T06:44:29.745Z,4.70
2023-01-05T06:45:31.887Z,4.70
2023-01-05T06:46:33.976Z,4.70
2023-01-05T06:47:36.009Z,4.80
2023-01-05T06:48:38.035Z,4.80
2023-01-05T06:49:40.413Z,4.80
2023-01-05T06:50:42.477Z,4.90
2023-01-05T06:51:44.529Z,4.80
2023-01-05T06:52:46.487Z,4.90
2023-01-05T06:53:49.332Z,4.90
2023-01-05T06:54:51.467Z,5.00
2023-01-05T06:55:53.665Z,5.00
2023-01-05T06:56:55.718Z,5.00
2023-01-05T06:58:00.965Z,5.00
2023-01-05T06:59:03.400Z,4.90
2023-01-05T07:00:12.860Z,4.90
2023-01-05T07:01:15.041Z,4.90
2023-01-05T07:02:18.065Z,4.80
2023-01-05T07:03:20.103Z,4.80
2023-01-05T07:04:22.773Z,4.80
2023-01-05T07:05:25.017Z,4.80
2023-01-05T07:06:27.618Z,4.80
2023-01-05T07:07:29.813Z,4.80
2023-01-05T07:08:31.948Z,4.80
2023-01-05T07:09:33.952Z,4.80
2023-01-05T07:10:36.052Z,4.90
2023-01-05T07:11:38.343Z,4.90
2023-01-05T07:12:40.436Z,4.90
2023-01-05T07:13:47.026Z,5.00
2023-01-05T07:14:54.364Z,5.00
2023-01-05T07:15:59.485Z,5.00
2023-01-05T07:17:04.149Z,5.10
2023-01-05T07:18:07.584Z,5.10
2023-01-05T07:19:11.153Z,5.20
2023-01-05T07:20:13.381Z,5.20
2023-01-05T07:21:15.378Z,5.30
2023-01-05T07:22:17.400Z,5.30
2023-01-05T07:23:20.421Z,5.30
2023-01-05T07:24:22.921Z,5.40
2023-01-05T07:25:25.028Z,5.40
2023-01-05T07:26:26.995Z,5.50
2023-01-05T07:27:29.037Z,5.60
2023-01-05T07:28:31.230Z,5.60
2023-01-05T07:29:33.271Z,5.70
2023-01-05T07:30:35.237Z,5.70
2023-01-05T07:31:37.218Z,5.80
2023-01-05T07:32:39.267Z,5.80
2023-01-05T07:33:41.238Z,5.90
2023-01-05T07:34:51.130Z,5.90
2023-01-05T07:35:54.341Z,6.00
2023-01-05T07:36:56.399Z,6.00
2023-01-05T07:37:58.677Z,6.00
2023-01-05T07:39:00.681Z,6.10
2023-01-05T07:40:02.721Z,6.10
2023-01-05T07:41:04.874Z,6.10
2023-01-05T07:42:06.933Z,6.10
2023-01-05T07:43:11.723Z,6.10
2023-01-05T07:44:13.794Z,6.10
2023-01-05T07:45:15.939Z,6.20
2023-01-05T07:46:18.074Z,6.20
2023-01-05T07:47:20.167Z,6.20
2023-01-05T07:48:23.712Z,6.20
2023-01-05T07:49:25.804Z,6.20
2023-01-05T07:50:27.907Z,6.20
2023-01-05T07:51:30.345Z,6.20
2023-01-05T07:52:33.213Z,6.30
2023-01-05T07:53:43.836Z,6.30
2023-01-05T07:54:46.779Z,6.20
2023-01-05T07:56:00.217Z,6.30
2023-01-05T07:57:02.312Z,6.30
2023-01-05T07:58:04.303Z,6.50
2023-01-05T07:59:06.324Z,6.70
2023-01-05T08:00:10.419Z,6.90
2023-01-05T08:01:18.374Z,7.20
2023-01-05T08:02:21.219Z,7.60
2023-01-05T08:03:23.860Z,8.00
2023-01-05T08:04:26.004Z,8.30
2023-01-05T08:05:33.970Z,8.60
2023-01-05T08:06:36.018Z,8.90
2023-01-05T08:07:38.304Z,9.20
2023-01-05T08:08:41.165Z,9.50
2023-01-05T08:10:01.647Z,9.80
2023-01-05T08:11:05.266Z,9.90
2023-01-05T08:12:07.462Z,10.10
2023-01-05T08:13:29.518Z,10.30
2023-01-05T08:14:31.580Z,10.60
2023-01-05T08:15:33.614Z,10.90
2023-01-05T08:16:35.703Z,11.00
2023-01-05T08:17:41.215Z,11.20
2023-01-05T08:18:43.306Z,11.40
2023-01-05T08:19:45.376Z,11.60
2023-01-05T08:20:55.112Z,11.70
2023-01-05T08:21:57.317Z,11.90
2023-01-05T08:22:59.282Z,12.10
2023-01-05T08:24:01.242Z,12.10
2023-01-05T08:25:04.016Z,12.10
2023-01-05T08:26:15.882Z,12.20
2023-01-05T08:27:17.958Z,12.40
2023-01-05T08:28:20.078Z,12.70
2023-01-05T08:29:22.221Z,12.80
2023-01-05T08:30:25.102Z,13.00
2023-01-05T08:31:29.994Z,13.00
2023-01-05T08:32:32.673Z,13.10
2023-01-05T08:33:34.982Z,13.00
2023-01-05T08:34:37.092Z,13.00
2023-01-05T08:35:44.332Z,13.10
2023-01-05T08:36:46.779Z,13.40
2023-01-05T08:37:48.800Z,13.50
2023-01-05T08:38:54.857Z,13.60
2023-01-05T08:39:58.042Z,13.80
2023-01-05T08:41:00.525Z,13.90
2023-01-05T08:42:03.046Z,14.00
2023-01-05T08:43:06.305Z,13.80
2023-01-05T08:44:13.420Z,13.80
2023-01-05T08:45:16.596Z,13.80
2023-01-05T08:46:20.737Z,13.80
2023-01-05T08:47:28.013Z,13.90
2023-01-05T08:48:30.559Z,14.10
2023-01-05T08:49:32.521Z,14.30
2023-01-05T08:50:34.927Z,14.30
2023-01-05T08:51:37.448Z,14.50
2023-01-05T08:52:40.000Z,14.60
2023-01-05T08:53:42.297Z,14.60
2023-01-05T08:54:44.277Z,14.60
2023-01-05T08:55:46.349Z,14.60
2023-01-05T08:56:50.765Z,14.70
2023-01-05T08:57:53.081Z,14.80
2023-01-05T08:59:01.338Z,14.80
2023-01-05T09:00:05.982Z,14.90
2023-01-05T09:01:12.372Z,14.90
2023-01-05T09:02:21.685Z,15.00
2023-01-05T09:03:30.206Z,15.00
2023-01-05T09:04:32.359Z,15.20
2023-01-05T09:05:34.355Z,15.30
2023-01-05T09:06:36.514Z,15.40
2023-01-05T09:07:38.534Z,15.50
2023-01-05T09:08:42.678Z,15.60
2023-01-05T09:09:44.697Z,15.70
2023-01-05T09:10:46.780Z,15.80
2023-01-05T09:11:48.726Z,15.80
2023-01-05T09:12:50.832Z,15.80
2023-01-05T09:13:58.719Z,15.70
2023-01-05T09:15:00.790Z,15.80
2023-01-05T09:16:08.062Z,15.70
2023-01-05T09:17:10.234Z,15.70
2023-01-05T09:18:12.445Z,15.60
2023-01-05T09:19:14.517Z,15.70
2023-01-05T09:20:16.475Z,15.70
